createdAt,value
2017-08-08T00:02:05.832Z,29.93
2017-08-08T00:04:33.355Z,36.37
2017-08-08T00:07:01.036Z,30.93
2017-08-08T00:09:28.579Z,33.17
2017-08-08T00:11:56.093Z,32.73
2017-08-08T00:14:23.604Z,40.43
2017-08-08T00:16:51.141Z,55.10
2017-08-08T00:19:18.657Z,51.97
2017-08-08T00:21:46.175Z,60.80
2017-08-08T00:24:13.841Z,39.77
2017-08-08T00:26:41.350Z,38.67
2017-08-08T00:29:08.862Z,44.63
2017-08-08T00:31:36.411Z,28.33
2017-08-08T00:34:03.922Z,27.03
2017-08-08T00:36:31.439Z,30.80
2017-08-08T00:38:58.974Z,45.67
2017-08-08T00:41:26.486Z,47.57
2017-08-08T00:43:54.395Z,48.80
2017-08-08T00:46:21.927Z,84.40
2017-08-08T00:48:49.473Z,82.27
2017-08-08T00:51:17.385Z,74.93
2017-08-08T00:53:44.922Z,52.30
2017-08-08T00:56:12.444Z,45.97
2017-08-08T00:58:39.955Z,39.73
2017-08-08T01:01:07.500Z,28.63
2017-08-08T01:03:35.014Z,49.40
2017-08-08T01:06:02.531Z,34.70
2017-08-08T01:08:30.072Z,37.60
2017-08-08T01:10:57.979Z,39.67
2017-08-08T01:13:25.482Z,35.53
2017-08-08T01:15:53.010Z,33.10
2017-08-08T01:18:20.519Z,30.23
2017-08-08T01:20:48.426Z,31.27
2017-08-08T01:23:15.963Z,23.30
2017-08-08T01:25:43.479Z,21.40
2017-08-08T01:28:10.995Z,20.60
2017-08-08T01:30:38.538Z,21.90
2017-08-08T01:33:06.054Z,23.83
2017-08-08T01:35:33.567Z,19.80
2017-08-08T01:38:01.111Z,22.03
2017-08-08T01:40:29.035Z,18.27
2017-08-08T01:42:56.563Z,17.00
2017-08-08T01:45:24.124Z,25.37
2017-08-08T01:47:51.640Z,23.47
2017-08-08T01:50:19.156Z,26.53
2017-08-08T01:52:46.712Z,16.60
2017-08-08T01:55:14.232Z,19.63
2017-08-08T01:57:41.739Z,23.10
2017-08-08T02:00:09.279Z,19.33
2017-08-08T02:02:36.794Z,18.20
2017-08-08T02:05:04.316Z,15.60
2017-08-08T02:07:31.867Z,20.00
2017-08-08T02:09:59.379Z,19.60
2017-08-08T02:12:26.897Z,15.97
2017-08-08T02:14:54.431Z,22.67
2017-08-08T02:17:22.339Z,16.13
2017-08-08T02:19:49.856Z,13.93
2017-08-08T02:22:17.396Z,16.70
2017-08-08T02:24:45.339Z,19.67
2017-08-08T02:27:12.879Z,21.37
2017-08-08T02:29:40.416Z,30.23
2017-08-08T02:32:07.948Z,111.00
2017-08-08T02:34:35.463Z,132.77
2017-08-08T02:37:03.009Z,109.93
2017-08-08T02:39:30.526Z,137.90
2017-08-08T02:41:58.044Z,101.47
2017-08-08T02:44:25.579Z,90.93
2017-08-08T02:46:53.114Z,101.40
2017-08-08T02:49:20.626Z,136.93
2017-08-08T02:51:48.158Z,90.37
2017-08-08T02:54:15.675Z,96.70
2017-08-08T02:56:43.196Z,88.20
2017-08-08T02:59:10.731Z,75.73
2017-08-08T03:01:38.640Z,103.53
2017-08-08T03:04:06.151Z,65.87
2017-08-08T03:06:34.096Z,67.90
2017-08-08T03:09:01.615Z,62.70
2017-08-08T03:11:29.131Z,74.60
2017-08-08T03:13:56.671Z,73.17
2017-08-08T03:16:24.187Z,58.20
2017-08-08T03:18:51.712Z,55.20
2017-08-08T03:21:19.683Z,30.90
2017-08-08T03:23:47.208Z,25.30
2017-08-08T03:26:14.723Z,35.73
2017-08-08T03:28:42.262Z,31.13
2017-08-08T03:31:09.776Z,37.27
2017-08-08T03:33:37.290Z,28.97
2017-08-08T03:36:05.222Z,31.57
2017-08-08T03:38:32.737Z,30.33
2017-08-08T03:41:00.648Z,31.10
2017-08-08T03:43:28.196Z,29.90
2017-08-08T03:45:55.715Z,28.57
2017-08-08T03:48:23.623Z,33.23
2017-08-08T03:50:51.170Z,32.50
2017-08-08T03:53:18.690Z,31.27
2017-08-08T03:55:46.224Z,25.93
2017-08-08T03:58:13.776Z,28.30
2017-08-08T04:00:41.411Z,38.10
2017-08-08T04:03:08.971Z,38.77
2017-08-08T04:05:36.496Z,35.80
2017-08-08T04:08:04.031Z,34.60
2017-08-08T04:10:31.570Z,35.30
2017-08-08T04:12:59.083Z,36.03
2017-08-08T04:15:26.985Z,32.40
2017-08-08T04:17:54.527Z,38.20
2017-08-08T04:20:22.439Z,30.47
2017-08-08T04:22:49.955Z,34.90
2017-08-08T04:25:17.887Z,38.03
2017-08-08T04:27:45.398Z,36.40
2017-08-08T04:30:12.924Z,34.03
2017-08-08T04:32:40.458Z,30.60
2017-08-08T04:35:07.992Z,30.93
2017-08-08T04:37:35.503Z,27.27
2017-08-08T04:40:03.038Z,35.03
2017-08-08T04:42:30.552Z,24.43
2017-08-08T04:44:58.469Z,29.13
2017-08-08T04:47:26.011Z,26.60
2017-08-08T04:49:53.535Z,28.90
2017-08-08T04:52:21.504Z,26.70
2017-08-08T04:54:49.055Z,32.40
2017-08-08T04:57:16.970Z,35.13
2017-08-08T04:59:44.490Z,32.27
2017-08-08T05:02:12.039Z,26.73
2017-08-08T05:04:39.555Z,33.97
2017-08-08T05:07:07.078Z,38.60
2017-08-08T05:09:34.620Z,29.80
2017-08-08T05:12:02.136Z,21.83
2017-08-08T05:14:29.645Z,25.60
2017-08-08T05:16:57.583Z,29.63
2017-08-08T05:19:25.110Z,25.67
2017-08-08T05:21:52.627Z,37.87
2017-08-08T05:24:20.124Z,33.53
2017-08-08T05:26:47.662Z,26.73
2017-08-08T05:29:15.582Z,27.27
2017-08-08T05:31:43.119Z,26.10
2017-08-08T05:34:10.631Z,25.63
2017-08-08T05:36:38.145Z,29.50
2017-08-08T05:39:05.683Z,26.77
2017-08-08T05:41:33.591Z,28.17
2017-08-08T05:44:01.102Z,33.63
2017-08-08T05:46:28.703Z,32.53
2017-08-08T05:48:56.218Z,21.00
2017-08-08T05:51:24.128Z,29.60
2017-08-08T05:53:51.994Z,26.73
2017-08-08T05:56:19.501Z,28.77
2017-08-08T05:58:47.011Z,26.17
2017-08-08T06:01:14.550Z,38.30
2017-08-08T06:03:42.455Z,29.90
2017-08-08T06:06:09.981Z,34.80
2017-08-08T06:08:37.518Z,31.13
2017-08-08T06:11:05.030Z,36.43
2017-08-08T06:13:32.537Z,31.13
2017-08-08T06:16:00.074Z,25.43
2017-08-08T06:18:27.764Z,22.93
2017-08-08T06:20:55.284Z,35.43
2017-08-08T06:23:22.822Z,23.87
2017-08-08T06:25:50.331Z,30.37
2017-08-08T06:28:17.842Z,26.47
2017-08-08T06:30:45.379Z,37.07
2017-08-08T06:33:13.307Z,30.63
2017-08-08T06:35:40.823Z,27.87
2017-08-08T06:38:08.363Z,22.87
2017-08-08T06:40:36.280Z,21.47
2017-08-08T06:43:03.787Z,31.77
2017-08-08T06:45:31.331Z,30.53
2017-08-08T06:47:58.849Z,29.67
2017-08-08T06:50:26.366Z,29.30
2017-08-08T06:52:53.904Z,28.93
2017-08-08T06:55:21.406Z,40.30
2017-08-08T06:57:49.302Z,32.43
2017-08-08T07:00:16.839Z,27.27
2017-08-08T07:02:44.347Z,45.50
2017-08-08T07:05:11.858Z,22.90
2017-08-08T07:07:39.395Z,36.53
2017-08-08T07:10:06.911Z,23.70
2017-08-08T07:12:34.423Z,22.10
2017-08-08T07:15:02.578Z,25.90
2017-08-08T07:17:30.099Z,24.80
2017-08-08T07:19:57.607Z,34.70
2017-08-08T07:22:25.159Z,32.20
2017-08-08T07:24:52.670Z,30.40
2017-08-08T07:27:20.190Z,31.63
2017-08-08T07:29:47.723Z,25.67
2017-08-08T07:32:15.236Z,32.43
2017-08-08T07:34:43.583Z,22.77
2017-08-08T07:37:11.131Z,27.40
2017-08-08T07:39:38.643Z,17.13
2017-08-08T07:42:06.167Z,23.67
2017-08-08T07:44:33.698Z,30.90
2017-08-08T07:47:01.215Z,23.20
2017-08-08T07:49:28.727Z,47.80
2017-08-08T07:51:56.274Z,40.03
2017-08-08T07:54:23.783Z,21.53
2017-08-08T07:56:51.295Z,20.23
2017-08-08T07:59:18.830Z,31.97
2017-08-08T08:01:46.368Z,23.53
2017-08-08T08:04:13.878Z,23.33
2017-08-08T08:06:41.395Z,24.77
2017-08-08T08:09:09.335Z,25.27
2017-08-08T08:11:36.852Z,29.13
2017-08-08T08:14:04.363Z,18.63
2017-08-08T08:16:31.898Z,19.33
2017-08-08T08:18:59.415Z,22.67
2017-08-08T08:21:26.932Z,21.00
2017-08-08T08:23:54.466Z,32.93
2017-08-08T08:26:21.983Z,21.90
2017-08-08T08:28:49.495Z,25.53
2017-08-08T08:31:17.033Z,27.93
2017-08-08T08:33:44.543Z,23.37
2017-08-08T08:36:12.055Z,17.70
2017-08-08T08:38:39.586Z,18.30
2017-08-08T08:41:07.099Z,21.43
2017-08-08T08:43:34.606Z,16.40
2017-08-08T08:46:02.143Z,20.37
2017-08-08T08:48:29.652Z,26.50
2017-08-08T08:50:57.171Z,15.17
2017-08-08T08:53:25.113Z,16.63
2017-08-08T08:55:52.629Z,15.67
2017-08-08T08:58:20.147Z,48.63
2017-08-08T09:00:47.707Z,79.23
2017-08-08T09:03:15.227Z,38.30
2017-08-08T09:05:42.743Z,28.67
2017-08-08T09:08:10.670Z,13.47
2017-08-08T09:10:38.182Z,23.97
2017-08-08T09:13:06.095Z,16.37
2017-08-08T09:15:33.626Z,14.80
2017-08-08T09:18:01.133Z,22.63
2017-08-08T09:20:28.644Z,31.33
2017-08-08T09:22:56.174Z,22.53
2017-08-08T09:25:23.682Z,32.60
2017-08-08T09:27:51.199Z,22.47
2017-08-08T09:30:19.135Z,26.60
2017-08-08T09:32:46.648Z,26.57
2017-08-08T09:35:14.162Z,57.03
2017-08-08T09:37:41.698Z,35.87
2017-08-08T09:40:09.207Z,26.83
2017-08-08T09:42:37.114Z,21.97
2017-08-08T09:45:04.647Z,25.03
2017-08-08T09:47:32.551Z,28.87
2017-08-08T09:50:00.062Z,26.27
2017-08-08T09:52:27.595Z,25.83
2017-08-08T09:54:55.106Z,24.90
2017-08-08T09:57:22.628Z,20.53
2017-08-08T09:59:50.170Z,30.53
2017-08-08T10:02:17.684Z,19.03
2017-08-08T10:04:45.591Z,17.47
2017-08-08T10:07:13.130Z,24.00
2017-08-08T10:09:40.643Z,27.47
2017-08-08T10:12:08.156Z,21.60
2017-08-08T10:14:35.720Z,14.47
2017-08-08T10:17:03.234Z,15.83
2017-08-08T10:19:31.154Z,17.60
2017-08-08T10:21:58.714Z,13.13
2017-08-08T10:24:26.228Z,15.53
2017-08-08T10:26:54.140Z,18.60
2017-08-08T10:29:21.679Z,14.20
2017-08-08T10:31:49.199Z,19.13
2017-08-08T10:34:16.711Z,15.77
2017-08-08T10:36:44.255Z,10.70
2017-08-08T10:39:12.154Z,20.90
2017-08-08T10:41:39.658Z,26.17
2017-08-08T10:44:07.199Z,23.60
2017-08-08T10:46:34.702Z,19.00
2017-08-08T10:49:02.615Z,15.60
2017-08-08T10:51:30.160Z,16.60
2017-08-08T10:53:57.675Z,11.93
2017-08-08T10:56:25.582Z,20.67
2017-08-08T10:58:53.118Z,23.57
2017-08-08T11:01:21.028Z,14.23
2017-08-08T11:03:48.547Z,12.30
2017-08-08T11:06:16.489Z,17.20
2017-08-08T11:08:44.008Z,12.90
2017-08-08T11:11:11.524Z,18.80
2017-08-08T11:13:39.455Z,17.87
2017-08-08T11:16:06.967Z,16.73
2017-08-08T11:18:34.498Z,12.77
2017-08-08T11:21:02.043Z,12.70
2017-08-08T11:23:29.562Z,11.30
2017-08-08T11:25:57.077Z,14.10
2017-08-08T11:28:24.615Z,21.70
2017-08-08T11:30:52.130Z,14.80
2017-08-08T11:33:19.643Z,25.83
2017-08-08T11:35:47.178Z,21.43
2017-08-08T11:38:14.690Z,19.07
2017-08-08T11:40:42.198Z,12.43
2017-08-08T11:43:09.740Z,10.53
2017-08-08T11:45:37.259Z,10.37
2017-08-08T11:48:04.853Z,7.73
2017-08-08T11:50:32.395Z,8.03
2017-08-08T11:52:59.907Z,7.67
2017-08-08T11:55:27.410Z,8.90
2017-08-08T11:57:54.946Z,9.93
2017-08-08T12:00:22.452Z,9.40
2017-08-08T12:02:50.358Z,13.53
2017-08-08T12:05:17.907Z,10.60
2017-08-08T12:07:45.411Z,8.70
2017-08-08T12:10:12.915Z,7.10
2017-08-08T12:12:40.447Z,11.03
2017-08-08T12:15:07.956Z,9.57
2017-08-08T12:17:35.476Z,16.40
2017-08-08T12:20:03.016Z,15.33
2017-08-08T12:22:30.544Z,12.23
2017-08-08T12:24:58.051Z,7.90
2017-08-08T12:27:25.974Z,7.67
2017-08-08T12:29:53.474Z,14.90
2017-08-08T12:32:20.979Z,8.20
2017-08-08T12:34:48.514Z,14.37
2017-08-08T12:37:16.413Z,8.30
2017-08-08T12:39:43.919Z,8.00
2017-08-08T12:42:11.467Z,8.50
2017-08-08T12:44:38.967Z,7.00
2017-08-08T12:47:06.475Z,5.70
2017-08-08T12:49:34.019Z,14.10
2017-08-08T12:52:01.527Z,6.57
2017-08-08T12:54:29.033Z,5.50
2017-08-08T12:56:56.563Z,11.60
2017-08-08T12:59:24.470Z,11.77
2017-08-08T13:01:51.970Z,13.23
2017-08-08T13:04:19.498Z,14.20
2017-08-08T13:06:47.010Z,18.30
2017-08-08T13:09:14.912Z,29.37
2017-08-08T13:11:42.447Z,7.93
2017-08-08T13:14:09.960Z,6.40
2017-08-08T13:16:37.472Z,6.17
2017-08-08T13:19:05.007Z,5.20
2017-08-08T13:21:32.923Z,8.50
2017-08-08T13:24:00.439Z,5.07
2017-08-08T13:26:28.367Z,5.40
2017-08-08T13:28:55.880Z,5.90
2017-08-08T13:31:23.783Z,6.13
2017-08-08T13:33:51.312Z,7.03
2017-08-08T13:36:19.223Z,6.90
2017-08-08T13:38:46.734Z,10.70
2017-08-08T13:41:14.676Z,28.70
2017-08-08T13:43:42.192Z,12.90
2017-08-08T13:46:09.736Z,7.40
2017-08-08T13:48:37.266Z,7.00
2017-08-08T13:51:04.777Z,14.40
2017-08-08T13:53:32.278Z,9.90
2017-08-08T13:55:59.819Z,32.40
2017-08-08T13:58:27.332Z,18.17
2017-08-08T14:00:55.243Z,22.57
2017-08-08T14:03:22.779Z,14.03
2017-08-08T14:05:50.291Z,18.93
2017-08-08T14:08:17.808Z,9.10
2017-08-08T14:10:45.339Z,6.23
2017-08-08T14:13:12.852Z,9.90
2017-08-08T14:15:40.363Z,13.83
2017-08-08T14:18:07.899Z,6.27
2017-08-08T14:20:35.407Z,6.87
2017-08-08T14:23:02.915Z,6.00
2017-08-08T14:25:30.456Z,10.50
2017-08-08T14:27:57.967Z,7.17
2017-08-08T14:30:25.471Z,4.93
2017-08-08T14:32:53.005Z,5.90
2017-08-08T14:35:20.524Z,6.20
2017-08-08T14:37:48.438Z,13.67
2017-08-08T14:40:15.975Z,5.60
2017-08-08T14:42:43.875Z,4.70
2017-08-08T14:45:11.374Z,6.43
2017-08-08T14:47:38.911Z,13.37
2017-08-08T14:50:06.419Z,8.63
2017-08-08T14:52:34.324Z,9.90
2017-08-08T14:55:01.859Z,11.40
2017-08-08T14:57:29.390Z,5.60
2017-08-08T14:59:57.309Z,14.93
2017-08-08T15:02:24.839Z,8.23
2017-08-08T15:04:52.771Z,18.53
2017-08-08T15:07:20.274Z,8.53
2017-08-08T15:09:47.807Z,6.17
2017-08-08T15:12:15.324Z,6.40
2017-08-08T15:14:42.836Z,5.87
2017-08-08T15:17:10.767Z,6.17
2017-08-08T15:19:38.279Z,6.03
2017-08-08T15:22:05.786Z,13.10
2017-08-08T15:24:33.315Z,11.20
2017-08-08T15:27:00.828Z,14.33
2017-08-08T15:29:28.335Z,6.30
2017-08-08T15:31:55.884Z,9.20
2017-08-08T15:34:23.399Z,5.73
2017-08-08T15:36:50.923Z,20.00
2017-08-08T15:39:18.468Z,13.30
2017-08-08T15:41:45.995Z,31.37
2017-08-08T15:44:13.512Z,71.67
2017-08-08T15:46:41.056Z,7.67
2017-08-08T15:49:08.570Z,10.70
2017-08-08T15:51:36.078Z,5.50
2017-08-08T15:54:03.606Z,5.90
2017-08-08T15:56:31.113Z,7.50
2017-08-08T15:58:58.584Z,8.53
2017-08-08T16:01:26.144Z,4.53
2017-08-08T16:03:53.664Z,6.47
2017-08-08T16:06:21.179Z,4.43
2017-08-08T16:08:48.719Z,4.30
2017-08-08T16:11:16.227Z,4.40
2017-08-08T16:13:43.732Z,5.40
2017-08-08T16:16:11.259Z,4.63
2017-08-08T16:18:39.200Z,4.50
2017-08-08T16:21:06.702Z,4.40
2017-08-08T16:23:34.236Z,6.00
2017-08-08T16:26:02.153Z,5.20
2017-08-08T16:28:29.655Z,5.40
2017-08-08T16:30:57.183Z,4.97
2017-08-08T16:33:24.702Z,5.10
2017-08-08T16:35:52.243Z,4.70
2017-08-08T16:38:19.753Z,6.87
2017-08-08T16:40:47.262Z,6.17
2017-08-08T16:43:14.789Z,4.60
2017-08-08T16:45:42.299Z,3.90
2017-08-08T16:48:09.811Z,4.77
2017-08-08T16:50:37.354Z,4.83
2017-08-08T16:53:04.858Z,5.03
2017-08-08T16:55:32.389Z,4.27
2017-08-08T16:57:59.911Z,5.70
2017-08-08T17:00:27.498Z,4.27
2017-08-08T17:02:55.031Z,5.50
2017-08-08T17:05:22.582Z,4.33
2017-08-08T17:07:50.699Z,5.03
2017-08-08T17:10:18.243Z,5.33
2017-08-08T17:12:45.747Z,4.10
2017-08-08T17:15:13.283Z,5.03
2017-08-08T17:17:40.787Z,4.40
2017-08-08T17:20:08.852Z,5.97
2017-08-08T17:22:36.382Z,6.43
2017-08-08T17:25:03.891Z,6.83
2017-08-08T17:27:31.800Z,6.83
2017-08-08T17:29:59.335Z,5.23
2017-08-08T17:32:26.838Z,5.77
2017-08-08T17:34:54.369Z,7.50
2017-08-08T17:37:21.870Z,5.30
2017-08-08T17:39:49.377Z,5.90
2017-08-08T17:42:16.908Z,6.10
2017-08-08T17:44:44.814Z,4.60
2017-08-08T17:47:12.327Z,4.60
2017-08-08T17:49:39.866Z,4.53
2017-08-08T17:52:07.370Z,4.50
2017-08-08T17:54:34.874Z,4.80
2017-08-08T17:57:02.407Z,5.00
2017-08-08T17:59:29.919Z,5.40
2017-08-08T18:01:57.423Z,5.27
2017-08-08T18:04:24.975Z,5.07
2017-08-08T18:06:52.492Z,4.87
2017-08-08T18:09:20.004Z,6.00
2017-08-08T18:11:47.534Z,5.50
2017-08-08T18:14:15.056Z,10.00
2017-08-08T18:16:42.566Z,13.43
2017-08-08T18:19:10.500Z,5.10
2017-08-08T18:21:38.002Z,6.10
2017-08-08T18:24:05.526Z,17.50
2017-08-08T18:26:33.059Z,23.70
2017-08-08T18:29:00.571Z,12.50
2017-08-08T18:31:28.487Z,9.20
2017-08-08T18:33:56.027Z,19.60
2017-08-08T18:36:23.571Z,16.80
2017-08-08T18:38:51.474Z,9.37
2017-08-08T18:41:19.007Z,16.13
2017-08-08T18:43:46.514Z,7.63
2017-08-08T18:46:14.022Z,6.53
2017-08-08T18:48:41.549Z,5.67
2017-08-08T18:51:09.056Z,13.20
2017-08-08T18:53:36.572Z,9.17
2017-08-08T18:56:04.108Z,5.97
2017-08-08T18:58:31.635Z,5.37
2017-08-08T19:00:59.139Z,4.93
2017-08-08T19:03:26.631Z,7.90
2017-08-08T19:05:54.193Z,4.70
2017-08-08T19:08:22.100Z,5.10
2017-08-08T19:10:49.630Z,5.40
2017-08-08T19:13:17.545Z,5.10
2017-08-08T19:15:45.050Z,5.73
2017-08-08T19:18:12.584Z,6.87
2017-08-08T19:20:40.099Z,12.30
2017-08-08T19:23:07.611Z,8.63
2017-08-08T19:25:35.136Z,8.57
2017-08-08T19:28:02.638Z,10.40
2017-08-08T19:30:30.134Z,5.13
2017-08-08T19:32:57.670Z,21.37
2017-08-08T19:35:25.577Z,9.87
2017-08-08T19:37:53.091Z,13.23
2017-08-08T19:40:20.631Z,7.63
2017-08-08T19:42:48.146Z,9.90
2017-08-08T19:45:15.667Z,14.33
2017-08-08T19:47:43.276Z,12.13
2017-08-08T19:50:10.786Z,5.10
2017-08-08T19:52:38.299Z,8.77
2017-08-08T19:55:05.849Z,12.33
2017-08-08T19:57:33.354Z,9.90
2017-08-08T20:00:00.862Z,7.13
2017-08-08T20:02:28.394Z,6.30
2017-08-08T20:04:56.032Z,5.60
2017-08-08T20:07:23.551Z,12.63
2017-08-08T20:09:51.111Z,10.03
2017-08-08T20:12:18.633Z,19.43
2017-08-08T20:14:46.154Z,15.33
2017-08-08T20:17:13.683Z,7.83
2017-08-08T20:19:41.206Z,20.50
2017-08-08T20:22:08.751Z,14.20
2017-08-08T20:24:36.254Z,6.80
2017-08-08T20:27:04.152Z,7.67
2017-08-08T20:29:31.687Z,16.60
2017-08-08T20:31:59.588Z,7.13
2017-08-08T20:34:27.099Z,12.03
2017-08-08T20:36:54.617Z,6.70
2017-08-08T20:39:22.135Z,8.40
2017-08-08T20:41:50.063Z,11.87
2017-08-08T20:44:17.572Z,12.13
2017-08-08T20:46:45.078Z,8.87
2017-08-08T20:49:12.607Z,8.37
2017-08-08T20:51:40.119Z,22.63
2017-08-08T20:54:07.639Z,17.30
2017-08-08T20:56:35.171Z,9.33
2017-08-08T20:59:03.083Z,14.77
2017-08-08T21:01:30.594Z,10.30
2017-08-08T21:03:58.518Z,8.07
2017-08-08T21:06:26.023Z,10.53
2017-08-08T21:08:53.527Z,13.13
2017-08-08T21:11:21.054Z,4.73
2017-08-08T21:13:48.555Z,5.57
2017-08-08T21:16:16.088Z,6.40
2017-08-08T21:18:43.625Z,6.13
2017-08-08T21:21:11.138Z,5.57
2017-08-08T21:23:38.672Z,4.80
2017-08-08T21:26:06.202Z,8.13
2017-08-08T21:28:34.101Z,5.80
2017-08-08T21:31:01.611Z,6.93
2017-08-08T21:33:29.147Z,5.03
2017-08-08T21:35:56.678Z,6.20
2017-08-08T21:38:24.184Z,5.50
2017-08-08T21:40:51.719Z,8.33
2017-08-08T21:43:19.244Z,5.47
2017-08-08T21:45:46.765Z,6.47
2017-08-08T21:48:14.290Z,6.47
2017-08-08T21:50:41.799Z,10.23
2017-08-08T21:53:09.331Z,11.00
2017-08-08T21:55:36.871Z,10.37
2017-08-08T21:58:04.375Z,6.13
2017-08-08T22:00:31.894Z,4.80
2017-08-08T22:02:59.415Z,8.53
2017-08-08T22:05:27.324Z,14.20
2017-08-08T22:07:54.859Z,12.10
2017-08-08T22:10:22.384Z,6.97
2017-08-08T22:12:49.924Z,18.20
2017-08-08T22:15:17.451Z,13.63
2017-08-08T22:17:44.967Z,21.07
2017-08-08T22:20:12.504Z,12.27
2017-08-08T22:22:40.007Z,8.20
2017-08-08T22:25:07.520Z,11.70
2017-08-08T22:27:35.050Z,8.57
2017-08-08T22:30:02.563Z,5.70
2017-08-08T22:32:30.076Z,5.47
2017-08-08T22:34:57.607Z,8.30
2017-08-08T22:37:25.503Z,7.00
2017-08-08T22:39:53.007Z,5.17
2017-08-08T22:42:20.531Z,5.57
2017-08-08T22:44:48.035Z,5.17
2017-08-08T22:47:15.563Z,5.43
2017-08-08T22:49:43.806Z,5.70
2017-08-08T22:52:11.577Z,5.33
2017-08-08T22:54:39.121Z,14.27
2017-08-08T22:57:06.670Z,5.87
2017-08-08T22:59:34.761Z,5.37
2017-08-08T23:02:02.358Z,5.50
2017-08-08T23:04:29.882Z,5.50
2017-08-08T23:06:57.386Z,5.00
2017-08-08T23:09:25.433Z,5.40
2017-08-08T23:11:52.938Z,5.67
2017-08-08T23:14:20.438Z,5.53
2017-08-08T23:16:47.975Z,5.23
2017-08-08T23:19:15.887Z,5.20
2017-08-08T23:21:43.391Z,5.30
2017-08-08T23:24:10.927Z,6.17
2017-08-08T23:26:38.545Z,5.13
2017-08-08T23:29:06.469Z,5.57
2017-08-08T23:31:34.442Z,6.00
2017-08-08T23:34:01.959Z,5.67
2017-08-08T23:36:29.470Z,5.23
2017-08-08T23:38:57.011Z,6.33
2017-08-08T23:41:24.519Z,5.70
2017-08-08T23:43:52.422Z,7.80
2017-08-08T23:46:19.975Z,5.60
2017-08-08T23:48:47.478Z,6.00
2017-08-08T23:51:14.982Z,6.33
2017-08-08T23:53:42.510Z,5.67
2017-08-08T23:56:10.016Z,6.60
2017-08-08T23:58:37.531Z,6.03
